Accueil
METAR-TAF:

METAR-TAF

Aéroports :

Danbury Municipal Airport

Danbury, Connecticut, États-Unis

latitude: 41-22-18N, longitude: 073-29-04W, altitude: 139 m

Observation

Le bulletin a été fait il y a 32 minutes, à 18:53 UTC
Vent 15 kt de ouest avec des rafales jusqu'à 23 kt
Température 7°C
Humidité 45%
Pression 994 hPa
Visibilité: 16.1 km
Nuages fragmentés à une hauteur de 5500 ft
Ciel couvert à une hauteur de 7000 ft

METAR: KDXR 101853Z 28015G23KT 10SM BKN055 OVC070 07/M04 A2935 RMK AO2 PK WND 28031/1819 SLP940 T00721044

Heure: 15:25 (19:25 UTC)


TAF: absent

Observations et prévisions météorologiques de plus de 4000 aéroports (messages METAR et TAF).

Les stations disponibles sont représentées par des disques jaunes et rouges sur la carte.

Passer la souris dessus pour voir le nom de la station.

Cliquer dessus pour voir les observations et prévisions météorologiques.

Pour changer de carte: cliquez sur les boutons verts avec une croix noire pour zoomer, sur le bouton vert avec un tiret pour effectuer un zoom arrière, ou sur les flèches vertes pour les cartes adjacentes.


METAR-TAF: